Time;durP1;ratioP1;P1;durP2;ratioP2;P2;SDS_P1;SDS_P2;PMS_P1;PMS_P2;Temp;Humidity;BMP_temperature;BMP_pressure;BME280_temperature;BME280_humidity;BME280_pressure;Samples;Min_cycle;Max_cycle;Signal;HPM_P1;HPM_P2
2023/12/12 18:57:59;;;;;;;17.27;11.10;;;;;;;;;;10446573;27;20448;-77
2023/12/12 19:03:00;;;;;;;10.07;7.50;;;;;;;;;;10404763;28;20242;-75
2023/12/12 19:08:02;;;;;;;11.65;7.32;;;;;;;;;;10402037;28;20214;-75
2023/12/12 19:13:03;;;;;;;15.60;7.05;;;;;;;;;;10408789;28;20309;-73
2023/12/12 19:18:04;;;;;;;20.52;10.18;;;;;;;;;;10398576;28;20264;-75
2023/12/12 19:23:07;;;;;;;20.13;9.15;;;;;;;;;;10377897;28;20515;-74
2023/12/12 19:28:08;;;;;;;17.95;10.40;;;;;;;;;;10366844;28;20322;-73
2023/12/12 19:33:09;;;;;;;11.18;7.78;;;;;;;;;;10354303;28;20264;-74
2023/12/12 19:38:12;;;;;;;22.85;13.20;;;;;;;;;;10370575;28;20212;-74
2023/12/12 19:43:13;;;;;;;14.77;10.38;;;;;;;;;;10363142;28;20228;-74
2023/12/12 19:48:15;;;;;;;15.60;8.60;;;;;;;;;;10395039;28;20215;-75
2023/12/12 19:53:16;;;;;;;16.90;8.15;;;;;;;;;;10415909;28;20247;-74
2023/12/12 19:58:19;;;;;;;17.58;6.80;;;;;;;;;;10377532;28;20666;-74
2023/12/12 20:03:22;;;;;;;14.93;7.85;;;;;;;;;;10416391;28;20234;-72
2023/12/12 20:08:23;;;;;;;14.25;5.93;;;;;;;;;;10381747;28;20302;-73
2023/12/12 20:13:24;;;;;;;11.77;6.32;;;;;;;;;;10399368;28;20222;-74
2023/12/12 20:18:25;;;;;;;8.60;5.47;;;;;;;;;;10386835;28;20210;-75
2023/12/12 20:23:26;;;;;;;8.88;5.75;;;;;;;;;;10393103;28;20211;-72
2023/12/12 20:28:27;;;;;;;10.13;6.18;;;;;;;;;;10366575;28;20207;-75
2023/12/12 20:33:29;;;;;;;7.28;4.28;;;;;;;;;;10383911;28;20219;-73
2023/12/12 20:38:31;;;;;;;12.90;4.53;;;;;;;;;;10382175;28;20215;-78
2023/12/12 20:43:32;;;;;;;13.48;4.78;;;;;;;;;;10378547;28;20265;-77
2023/12/12 20:48:33;;;;;;;10.63;4.88;;;;;;;;;;10380513;28;20257;-77
2023/12/12 20:53:35;;;;;;;7.35;4.32;;;;;;;;;;10378193;28;20506;-77
2023/12/12 20:58:36;;;;;;;6.55;4.18;;;;;;;;;;10370633;28;20299;-76
2023/12/12 21:03:37;;;;;;;10.10;4.38;;;;;;;;;;10352487;28;20216;-75
2023/12/12 21:08:39;;;;;;;6.57;3.97;;;;;;;;;;10349130;28;20242;-75
2023/12/12 21:13:40;;;;;;;7.07;4.28;;;;;;;;;;10345576;28;20228;-75
2023/12/12 21:18:41;;;;;;;6.65;3.65;;;;;;;;;;10342989;28;20216;-74
2023/12/12 21:23:43;;;;;;;6.13;3.83;;;;;;;;;;10345543;28;20607;-75
2023/12/12 21:28:44;;;;;;;8.80;4.45;;;;;;;;;;10336374;28;20252;-76
2023/12/12 21:33:45;;;;;;;5.47;3.83;;;;;;;;;;10344477;28;20220;-75
2023/12/12 21:38:46;;;;;;;4.70;3.25;;;;;;;;;;10337414;28;20204;-76
2023/12/12 21:43:48;;;;;;;10.85;4.03;;;;;;;;;;10353115;28;20306;-75
2023/12/12 21:48:49;;;;;;;6.43;3.30;;;;;;;;;;10340172;28;20215;-75
2023/12/12 21:53:50;;;;;;;7.18;3.58;;;;;;;;;;10340822;28;20231;-75
2023/12/12 21:58:52;;;;;;;8.65;3.10;;;;;;;;;;10347843;28;20272;-75
2023/12/12 22:03:53;;;;;;;3.13;2.78;;;;;;;;;;10368109;28;20224;-74
2023/12/12 22:08:54;;;;;;;5.03;2.95;;;;;;;;;;10347877;28;20724;-75
2023/12/12 22:13:55;;;;;;;4.63;2.95;;;;;;;;;;10362136;28;20220;-76
2023/12/12 22:18:56;;;;;;;5.25;2.97;;;;;;;;;;10348361;28;20212;-75
2023/12/12 22:23:59;;;;;;;6.57;2.90;;;;;;;;;;10342851;28;20706;-75
2023/12/12 22:29:02;;;;;;;13.52;3.60;;;;;;;;;;10346310;28;20694;-75
2023/12/12 22:34:03;;;;;;;5.93;2.55;;;;;;;;;;10346725;28;20950;-74
2023/12/12 22:39:04;;;;;;;8.18;2.88;;;;;;;;;;10369161;28;20207;-75
2023/12/12 22:44:05;;;;;;;5.20;2.65;;;;;;;;;;10354212;28;20255;-75
2023/12/12 22:49:06;;;;;;;7.97;2.83;;;;;;;;;;10373818;28;20234;-75
2023/12/12 22:54:07;;;;;;;9.48;3.08;;;;;;;;;;10385338;28;20932;-75
2023/12/12 22:59:08;;;;;;;10.98;3.28;;;;;;;;;;10380342;28;20208;-74
2023/12/12 23:04:09;;;;;;;6.78;3.65;;;;;;;;;;10378646;28;20247;-75
2023/12/12 23:09:10;;;;;;;3.83;3.15;;;;;;;;;;10343850;28;20226;-75
2023/12/12 23:14:12;;;;;;;5.60;3.17;;;;;;;;;;10356687;28;20876;-75
2023/12/12 23:19:13;;;;;;;6.50;3.85;;;;;;;;;;10376460;28;20686;-74
2023/12/12 23:24:14;;;;;;;3.45;3.15;;;;;;;;;;10378246;28;20224;-75
2023/12/12 23:29:15;;;;;;;10.18;3.55;;;;;;;;;;10354581;28;20286;-74
2023/12/12 23:34:16;;;;;;;7.15;2.95;;;;;;;;;;10376216;28;20284;-75
2023/12/12 23:39:17;;;;;;;9.65;3.25;;;;;;;;;;10346068;28;20562;-73
2023/12/12 23:44:18;;;;;;;10.38;3.53;;;;;;;;;;10349478;28;20247;-73
2023/12/12 23:49:19;;;;;;;9.13;3.47;;;;;;;;;;10343020;28;20224;-73
2023/12/12 23:54:20;;;;;;;7.25;2.63;;;;;;;;;;10382336;28;20243;-73
2023/12/12 23:59:21;;;;;;;6.47;3.05;;;;;;;;;;10352719;28;20242;-74
